Karinya Fr699 — MAUA8 — position and weather

sailwx.info

Track history (hours):
 
Tides and Currents Weather Stations Pressure Air Temp Water Temp Dewpoint Dewpoint Depression Visibility Wind Speed Wind Dir Waves Ship Positions

Karinya Fr699

Last reported at 2015-Oct-03 03:06 UTC. Time now 2016-Jul-25 06:16 UTC.
Position N 57°45' W 002°04'.
Warning: this ship's position is months out of date.

Length 16 m.

MMSI: 235018981.

Date/timePositionNaut miles runAvg speedWind from/ knotsBaromVisibWave heightAir tempDewpointWater temp
2015-Oct-03 03:06N 57°45' W 002°04'4 6.4
2015-Oct-03 02:33N 57°42' W 001°60'1 1.0
2015-Oct-03 01:33N 57°42' W 002°00'0 0.0
2015-Oct-03 00:33N 57°42' W 002°00'0 0.0
2015-Oct-02 23:33N 57°42' W 002°00'0 0.0
2015-Oct-02 22:33N 57°42' W 002°00'0 0.0
2015-Oct-01 08:13N 57°42' W 002°00'0 0.0
2015-Oct-01 07:33N 57°42' W 002°00'0 0.0
2015-Oct-01 06:33N 57°42' W 002°00'0 0.0
2015-Oct-01 05:33N 57°42' W 002°00'0 0.0
2015-Oct-01 04:34N 57°42' W 002°00'0 0.0
2015-Oct-01 03:33N 57°42' W 002°00'0 0.0
2015-Oct-01 02:33N 57°42' W 002°00'0 0.0
2015-Oct-01 01:33N 57°42' W 002°00'0 0.0
2015-Oct-01 00:33N 57°42' W 002°00'0 0.0
2015-Sep-30 23:33N 57°42' W 002°00'0 0.0
2015-Sep-30 22:34N 57°42' W 002°00'0 0.0
2015-Sep-30 21:33N 57°42' W 002°00'0 0.1
2015-Sep-30 20:34N 57°41' W 001°60'0 0.1
2015-Sep-30 19:33N 57°41' W 002°00'7 6.3
2015-Sep-30 18:30N 57°47' W 002°06'3 0.1
2015-Sep-29 00:06N 57°44' W 002°06'3 5.4
2015-Sep-28 23:34N 57°43' W 002°01'1 1.2
2015-Sep-28 22:33N 57°41' W 002°00'1 1.3
2015-Sep-28 21:34N 57°42' W 001°58'3 3.0
2015-Sep-28 20:33N 57°44' W 002°02'  
2015-Sep-25 23:33N 57°43' W 002°02'2 1.8
2015-Sep-25 22:34N 57°41' W 001°60'0 0.2
2015-Sep-25 21:34N 57°42' W 002°00'0 0.0
2015-Sep-24 20:33N 57°41' W 002°00'2 2.0
2015-Sep-24 19:33N 57°43' W 001°60'3 3.3
2015-Sep-24 18:33N 57°45' W 002°05'  
Track history (hours):
 
Tides and Currents Weather Stations Pressure Air Temp Water Temp Dewpoint Dewpoint Depression Visibility Wind Speed Wind Dir Waves Ship Positions

Karinya Fr699

Last reported at 2015-Oct-03 03:06 UTC. Time now 2016-Jul-25 06:16 UTC.
Position N 57°45' W 002°04'.
Warning: this ship's position is months out of date.

Length 16 m.

MMSI: 235018981.

Date/timePositionNaut miles runAvg speedWind from/ knotsBaromVisibWave heightAir tempDewpointWater temp
2015-Oct-03 03:06N 57°45' W 002°04'4 6.4
2015-Oct-03 02:33N 57°42' W 001°60'1 1.0
2015-Oct-03 01:33N 57°42' W 002°00'0 0.0
2015-Oct-03 00:33N 57°42' W 002°00'0 0.0
2015-Oct-02 23:33N 57°42' W 002°00'0 0.0
2015-Oct-02 22:33N 57°42' W 002°00'0 0.0
2015-Oct-01 08:13N 57°42' W 002°00'0 0.0
2015-Oct-01 07:33N 57°42' W 002°00'0 0.0
2015-Oct-01 06:33N 57°42' W 002°00'0 0.0
2015-Oct-01 05:33N 57°42' W 002°00'0 0.0
2015-Oct-01 04:34N 57°42' W 002°00'0 0.0
2015-Oct-01 03:33N 57°42' W 002°00'0 0.0
2015-Oct-01 02:33N 57°42' W 002°00'0 0.0
2015-Oct-01 01:33N 57°42' W 002°00'0 0.0
2015-Oct-01 00:33N 57°42' W 002°00'0 0.0
2015-Sep-30 23:33N 57°42' W 002°00'0 0.0
2015-Sep-30 22:34N 57°42' W 002°00'0 0.0
2015-Sep-30 21:33N 57°42' W 002°00'0 0.1
2015-Sep-30 20:34N 57°41' W 001°60'0 0.1
2015-Sep-30 19:33N 57°41' W 002°00'7 6.3
2015-Sep-30 18:30N 57°47' W 002°06'3 0.1
2015-Sep-29 00:06N 57°44' W 002°06'3 5.4
2015-Sep-28 23:34N 57°43' W 002°01'1 1.2
2015-Sep-28 22:33N 57°41' W 002°00'1 1.3
2015-Sep-28 21:34N 57°42' W 001°58'3 3.0
2015-Sep-28 20:33N 57°44' W 002°02'  
2015-Sep-25 23:33N 57°43' W 002°02'2 1.8
2015-Sep-25 22:34N 57°41' W 001°60'0 0.2
2015-Sep-25 21:34N 57°42' W 002°00'0 0.0
2015-Sep-24 20:33N 57°41' W 002°00'2 2.0
2015-Sep-24 19:33N 57°43' W 001°60'3 3.3
2015-Sep-24 18:33N 57°45' W 002°05'  

Dump ship's entire track history